Thor, South Carolina
Current Conditions -  °F | °C
As of 6:56 AM on Monday 22 Dec 2014 (Local Time) from KCAE Reporting Station
Overcast Overcast  
Wind Chill:   Ceiling: 800
Heat Index:   Visibility: 9mi
Dew Point:   Wind: 8mph
Humidity: 90%   Direction: 50°NE
Pressure: 30.09"   Gusts: NA
Location:  33.7682°N, 81.2599°W
Report Text: KCAE 221156Z 05007KT 9SM OVC008 07/06 A3009 RMK AO2 CIG 005V011 SLP189 P0001 60010 70035 T00720056 10083 20072 53004
Loading
Personal Weather Stations






























Interactive Weather Map New forecast layout! Learn more

10-Day Weather Forecast

Advertisements
Track Severe Weather on mobile